Wan Hai 273 — 9V7586 — position and weather

sailwx.info

Track history (hours):
 
Tides and Currents Weather Stations Pressure Air Temp Water Temp Dewpoint Dewpoint Depression Visibility Wind Speed Wind Dir Waves Ship Positions

Wan Hai 273

Last reported at 2014-Sep-01 10:17 UTC. Time now 2014-Sep-01 11:26 UTC.
Position N 34°39' E 135°26'.

Length 172 m; draft 7.1 m.

Type: Cargo ship. MMSI: 566406000.

Date/timePositionNaut miles runAvg speedWind from/ knotsBaromVisibWave heightAir tempDewpointWater temp
2014-Sep-01 10:17N 34°39' E 135°26'0 0.0
2014-Sep-01 09:29N 34°39' E 135°26'4 4.8
2014-Sep-01 08:33N 34°36' E 135°21'1716.6
2014-Sep-01 07:33N 34°25' E 135°07'1515.1
2014-Sep-01 06:33N 34°11' E 134°60'1615.8
2014-Sep-01 05:33N 33°55' E 134°60'100119.6
2014-Aug-30 02:32N 24°25' E 119°17'4421.0
2014-Aug-30 00:26N 23°56' E 118°41'1921.0
2014-Aug-29 23:30N 23°43' E 118°25'1919.5
2014-Aug-29 22:33N 23°31' E 118°09'1919.2
2014-Aug-29 21:33N 23°20' E 117°52'1918.7
2014-Aug-29 20:33N 23°11' E 117°34'4119.8
2014-Aug-29 18:29N 22°50' E 116°56'15719.3
2014-Aug-29 10:20N 22°11' E 114°11'911.9
2014-Aug-29 09:33N 22°19' E 114°06'1 1.3
2014-Aug-29 08:31N 22°20' E 114°08'0 0.0
2014-Aug-29 07:25N 22°20' E 114°08'0 0.0
2014-Aug-29 06:25N 22°20' E 114°08'0 0.0
2014-Aug-29 05:31N 22°20' E 114°08'0 0.0
2014-Aug-29 04:31N 22°20' E 114°08'0 0.0
2014-Aug-29 03:31N 22°20' E 114°08'0 0.0
2014-Aug-29 02:31N 22°20' E 114°08'0 0.0
2014-Aug-29 01:13N 22°20' E 114°08'0 0.0
2014-Aug-29 00:31N 22°20' E 114°08'0 0.3
2014-Aug-28 23:33N 22°20' E 114°07'3 0.4
2014-Aug-28 16:10N 22°19' E 114°04'9 8.5
2014-Aug-28 15:04N 22°22' E 113°55'3 6.6
2014-Aug-28 14:33N 22°25' E 113°53'2 2.2
2014-Aug-28 13:29N 22°27' E 113°53'0 0.0
2014-Aug-28 12:32N 22°27' E 113°53'0 0.0
2014-Aug-28 11:32N 22°27' E 113°53'0 0.0
2014-Aug-28 10:29N 22°27' E 113°53'0 0.0
2014-Aug-28 09:32N 22°27' E 113°53'0 0.0
2014-Aug-28 08:32N 22°27' E 113°53'0 0.0
2014-Aug-28 07:32N 22°27' E 113°53'0 0.0
2014-Aug-28 06:32N 22°27' E 113°53'0 0.0
2014-Aug-28 05:32N 22°27' E 113°53'0 0.0
2014-Aug-28 04:29N 22°27' E 113°53'0 0.0
2014-Aug-28 03:32N 22°27' E 113°53'0 0.1
2014-Aug-28 02:33N 22°27' E 113°53'7 7.3
2014-Aug-28 01:32N 22°21' E 113°57'9 9.2
2014-Aug-28 00:31N 22°17' E 114°06'  
2014-Aug-22 14:24N 21°44' E 113°49'1516.1
2014-Aug-22 13:27N 21°56' E 113°59'2311.1
2014-Aug-22 11:26N 22°18' E 114°06'11 9.8
2014-Aug-22 10:20N 22°22' E 113°55'  
Track history (hours):
 
Tides and Currents Weather Stations Pressure Air Temp Water Temp Dewpoint Dewpoint Depression Visibility Wind Speed Wind Dir Waves Ship Positions

Wan Hai 273

Last reported at 2014-Sep-01 10:17 UTC. Time now 2014-Sep-01 11:26 UTC.
Position N 34°39' E 135°26'.

Length 172 m; draft 7.1 m.

Type: Cargo ship. MMSI: 566406000.

Date/timePositionNaut miles runAvg speedWind from/ knotsBaromVisibWave heightAir tempDewpointWater temp
2014-Sep-01 10:17N 34°39' E 135°26'0 0.0
2014-Sep-01 09:29N 34°39' E 135°26'4 4.8
2014-Sep-01 08:33N 34°36' E 135°21'1716.6
2014-Sep-01 07:33N 34°25' E 135°07'1515.1
2014-Sep-01 06:33N 34°11' E 134°60'1615.8
2014-Sep-01 05:33N 33°55' E 134°60'100119.6
2014-Aug-30 02:32N 24°25' E 119°17'4421.0
2014-Aug-30 00:26N 23°56' E 118°41'1921.0
2014-Aug-29 23:30N 23°43' E 118°25'1919.5
2014-Aug-29 22:33N 23°31' E 118°09'1919.2
2014-Aug-29 21:33N 23°20' E 117°52'1918.7
2014-Aug-29 20:33N 23°11' E 117°34'4119.8
2014-Aug-29 18:29N 22°50' E 116°56'15719.3
2014-Aug-29 10:20N 22°11' E 114°11'911.9
2014-Aug-29 09:33N 22°19' E 114°06'1 1.3
2014-Aug-29 08:31N 22°20' E 114°08'0 0.0
2014-Aug-29 07:25N 22°20' E 114°08'0 0.0
2014-Aug-29 06:25N 22°20' E 114°08'0 0.0
2014-Aug-29 05:31N 22°20' E 114°08'0 0.0
2014-Aug-29 04:31N 22°20' E 114°08'0 0.0
2014-Aug-29 03:31N 22°20' E 114°08'0 0.0
2014-Aug-29 02:31N 22°20' E 114°08'0 0.0
2014-Aug-29 01:13N 22°20' E 114°08'0 0.0
2014-Aug-29 00:31N 22°20' E 114°08'0 0.3
2014-Aug-28 23:33N 22°20' E 114°07'3 0.4
2014-Aug-28 16:10N 22°19' E 114°04'9 8.5
2014-Aug-28 15:04N 22°22' E 113°55'3 6.6
2014-Aug-28 14:33N 22°25' E 113°53'2 2.2
2014-Aug-28 13:29N 22°27' E 113°53'0 0.0
2014-Aug-28 12:32N 22°27' E 113°53'0 0.0
2014-Aug-28 11:32N 22°27' E 113°53'0 0.0
2014-Aug-28 10:29N 22°27' E 113°53'0 0.0
2014-Aug-28 09:32N 22°27' E 113°53'0 0.0
2014-Aug-28 08:32N 22°27' E 113°53'0 0.0
2014-Aug-28 07:32N 22°27' E 113°53'0 0.0
2014-Aug-28 06:32N 22°27' E 113°53'0 0.0
2014-Aug-28 05:32N 22°27' E 113°53'0 0.0
2014-Aug-28 04:29N 22°27' E 113°53'0 0.0
2014-Aug-28 03:32N 22°27' E 113°53'0 0.1
2014-Aug-28 02:33N 22°27' E 113°53'7 7.3
2014-Aug-28 01:32N 22°21' E 113°57'9 9.2
2014-Aug-28 00:31N 22°17' E 114°06'  
2014-Aug-22 14:24N 21°44' E 113°49'1516.1
2014-Aug-22 13:27N 21°56' E 113°59'2311.1
2014-Aug-22 11:26N 22°18' E 114°06'11 9.8
2014-Aug-22 10:20N 22°22' E 113°55'  

Dump ship's entire track history